sensor_id;sensor_type;location;lat;lon;timestamp;pressure;altitude;pressure_sealevel;temperature;humidity
3960;BME280;1994;48.640;8.894;2023-04-10T00:01:05;96709.81;;;5.44;75.41
3960;BME280;1994;48.640;8.894;2023-04-10T00:03:31;96704.50;;;5.46;75.73
3960;BME280;1994;48.640;8.894;2023-04-10T00:05:58;96706.38;;;5.58;74.69
3960;BME280;1994;48.640;8.894;2023-04-10T00:08:24;96697.31;;;5.69;74.67
3960;BME280;1994;48.640;8.894;2023-04-10T00:10:51;96694.47;;;5.57;74.61
3960;BME280;1994;48.640;8.894;2023-04-10T00:13:19;96700.00;;;5.54;74.86
3960;BME280;1994;48.640;8.894;2023-04-10T00:15:44;96703.91;;;5.50;74.79
3960;BME280;1994;48.640;8.894;2023-04-10T00:18:11;96700.34;;;5.45;74.50
3960;BME280;1994;48.640;8.894;2023-04-10T00:20:37;96694.06;;;5.54;73.87
3960;BME280;1994;48.640;8.894;2023-04-10T00:23:02;96694.44;;;5.51;73.86
3960;BME280;1994;48.640;8.894;2023-04-10T00:25:28;96693.22;;;5.47;73.94
3960;BME280;1994;48.640;8.894;2023-04-10T00:27:54;96694.63;;;5.22;74.72
3960;BME280;1994;48.640;8.894;2023-04-10T00:30:20;96691.97;;;5.09;75.04
3960;BME280;1994;48.640;8.894;2023-04-10T00:32:46;96689.03;;;5.12;75.05
3960;BME280;1994;48.640;8.894;2023-04-10T00:35:12;96688.28;;;5.18;74.46
3960;BME280;1994;48.640;8.894;2023-04-10T00:37:38;96680.88;;;5.08;75.03
3960;BME280;1994;48.640;8.894;2023-04-10T00:40:04;96671.59;;;5.07;75.42
3960;BME280;1994;48.640;8.894;2023-04-10T00:42:31;96676.56;;;5.09;75.02
3960;BME280;1994;48.640;8.894;2023-04-10T00:44:58;96668.25;;;5.07;75.25
3960;BME280;1994;48.640;8.894;2023-04-10T00:47:25;96673.25;;;5.15;75.07
3960;BME280;1994;48.640;8.894;2023-04-10T00:49:52;96663.81;;;5.22;74.27
3960;BME280;1994;48.640;8.894;2023-04-10T00:52:19;96678.78;;;5.18;74.04
3960;BME280;1994;48.640;8.894;2023-04-10T00:54:44;96662.97;;;5.15;74.22
3960;BME280;1994;48.640;8.894;2023-04-10T00:57:10;96661.56;;;5.12;75.00
3960;BME280;1994;48.640;8.894;2023-04-10T00:59:36;96668.19;;;5.00;75.29
3960;BME280;1994;48.640;8.894;2023-04-10T01:02:03;96675.34;;;4.84;75.64
3960;BME280;1994;48.640;8.894;2023-04-10T01:04:29;96675.72;;;4.81;75.77
3960;BME280;1994;48.640;8.894;2023-04-10T01:07:20;96672.81;;;4.63;76.76
3960;BME280;1994;48.640;8.894;2023-04-10T01:10:19;96673.97;;;4.60;76.64
3960;BME280;1994;48.640;8.894;2023-04-10T01:16:00;96682.19;;;4.56;76.55
3960;BME280;1994;48.640;8.894;2023-04-10T01:18:43;96678.03;;;4.55;76.79
3960;BME280;1994;48.640;8.894;2023-04-10T01:21:11;96680.59;;;4.55;77.08
3960;BME280;1994;48.640;8.894;2023-04-10T01:29:47;96676.44;;;4.54;76.93
3960;BME280;1994;48.640;8.894;2023-04-10T01:32:20;96676.75;;;4.65;76.66
3960;BME280;1994;48.640;8.894;2023-04-10T01:34:53;96671.84;;;4.70;76.14
3960;BME280;1994;48.640;8.894;2023-04-10T01:37:26;96675.66;;;4.74;76.01
3960;BME280;1994;48.640;8.894;2023-04-10T01:40:00;96664.22;;;4.77;75.70
3960;BME280;1994;48.640;8.894;2023-04-10T01:42:33;96658.25;;;4.70;75.80
3960;BME280;1994;48.640;8.894;2023-04-10T01:45:00;96661.31;;;4.59;76.20
3960;BME280;1994;48.640;8.894;2023-04-10T01:47:26;96661.66;;;4.56;76.05
3960;BME280;1994;48.640;8.894;2023-04-10T01:49:54;96660.44;;;4.52;76.55
3960;BME280;1994;48.640;8.894;2023-04-10T01:52:22;96659.22;;;4.48;77.28
3960;BME280;1994;48.640;8.894;2023-04-10T01:54:48;96660.69;;;4.36;76.78
3960;BME280;1994;48.640;8.894;2023-04-10T01:57:15;96663.09;;;4.23;77.39
3960;BME280;1994;48.640;8.894;2023-04-10T01:59:41;96663.22;;;4.15;77.98
3960;BME280;1994;48.640;8.894;2023-04-10T02:02:07;96656.59;;;4.06;78.69
3960;BME280;1994;48.640;8.894;2023-04-10T02:04:35;96661.72;;;4.06;78.50
3960;BME280;1994;48.640;8.894;2023-04-10T02:07:07;96663.56;;;4.12;78.85
3960;BME280;1994;48.640;8.894;2023-04-10T02:10:10;96661.25;;;4.17;78.71
3960;BME280;1994;48.640;8.894;2023-04-10T02:12:45;96651.44;;;4.20;78.74
3960;BME280;1994;48.640;8.894;2023-04-10T02:15:16;96656.97;;;4.24;78.59
3960;BME280;1994;48.640;8.894;2023-04-10T02:17:44;96651.84;;;4.24;78.49
3960;BME280;1994;48.640;8.894;2023-04-10T02:20:11;96659.88;;;4.00;78.33
3960;BME280;1994;48.640;8.894;2023-04-10T02:22:40;96653.78;;;4.01;78.62
3960;BME280;1994;48.640;8.894;2023-04-10T02:25:09;96654.88;;;4.13;78.09
3960;BME280;1994;48.640;8.894;2023-04-10T02:27:36;96662.13;;;4.24;77.52
3960;BME280;1994;48.640;8.894;2023-04-10T02:30:03;96662.50;;;4.21;77.31
3960;BME280;1994;48.640;8.894;2023-04-10T02:32:30;96658.50;;;4.18;76.91
3960;BME280;1994;48.640;8.894;2023-04-10T02:34:56;96661.63;;;4.14;77.69
3960;BME280;1994;48.640;8.894;2023-04-10T02:37:22;96667.19;;;4.17;77.93
3960;BME280;1994;48.640;8.894;2023-04-10T02:39:48;96659.66;;;4.16;77.67
3960;BME280;1994;48.640;8.894;2023-04-10T02:42:14;96667.63;;;4.21;77.58
3960;BME280;1994;48.640;8.894;2023-04-10T02:44:41;96663.47;;;4.20;76.72
3960;BME280;1994;48.640;8.894;2023-04-10T02:47:06;96667.25;;;4.24;76.53
3960;BME280;1994;48.640;8.894;2023-04-10T02:49:33;96667.63;;;4.21;76.54
3960;BME280;1994;48.640;8.894;2023-04-10T02:52:02;96672.75;;;4.21;76.87
3960;BME280;1994;48.640;8.894;2023-04-10T02:54:27;96666.75;;;4.14;76.30
3960;BME280;1994;48.640;8.894;2023-04-10T02:56:55;96671.88;;;4.14;76.21
3960;BME280;1994;48.640;8.894;2023-04-10T02:59:22;96669.41;;;4.06;76.90
3960;BME280;1994;48.640;8.894;2023-04-10T03:01:48;96662.69;;;4.05;76.60
3960;BME280;1994;48.640;8.894;2023-04-10T03:04:14;96656.72;;;3.98;76.99
3960;BME280;1994;48.640;8.894;2023-04-10T03:06:40;96654.16;;;3.98;77.03
3960;BME280;1994;48.640;8.894;2023-04-10T03:09:06;96652.03;;;3.87;77.97
3960;BME280;1994;48.640;8.894;2023-04-10T03:11:32;96653.78;;;3.86;77.95
3960;BME280;1994;48.640;8.894;2023-04-10T03:13:58;96656.28;;;3.80;78.32
3960;BME280;1994;48.640;8.894;2023-04-10T03:16:24;96655.66;;;3.92;78.08
3960;BME280;1994;48.640;8.894;2023-04-10T03:18:52;96649.81;;;3.84;78.36
3960;BME280;1994;48.640;8.894;2023-04-10T03:21:18;96650.09;;;3.74;79.00
3960;BME280;1994;48.640;8.894;2023-04-10T03:23:43;96639.25;;;3.58;79.71
3960;BME280;1994;48.640;8.894;2023-04-10T03:26:09;96638.91;;;3.61;80.02
3960;BME280;1994;48.640;8.894;2023-04-10T03:28:35;96630.34;;;3.68;79.61
3960;BME280;1994;48.640;8.894;2023-04-10T03:31:02;96635.03;;;3.65;79.74
3960;BME280;1994;48.640;8.894;2023-04-10T03:33:28;96630.66;;;3.65;78.73
3960;BME280;1994;48.640;8.894;2023-04-10T03:35:54;96632.97;;;3.60;78.95
3960;BME280;1994;48.640;8.894;2023-04-10T03:38:22;96627.31;;;3.50;79.17
3960;BME280;1994;48.640;8.894;2023-04-10T03:40:47;96623.97;;;3.50;79.24
3960;BME280;1994;48.640;8.894;2023-04-10T03:43:13;96626.09;;;3.61;78.85
3960;BME280;1994;48.640;8.894;2023-04-10T03:45:39;96629.91;;;3.65;78.84
3960;BME280;1994;48.640;8.894;2023-04-10T03:48:05;96627.94;;;3.67;78.80
3960;BME280;1994;48.640;8.894;2023-04-10T03:50:31;96620.84;;;3.69;79.02
3960;BME280;1994;48.640;8.894;2023-04-10T03:52:57;96621.75;;;3.76;78.56
3960;BME280;1994;48.640;8.894;2023-04-10T03:55:22;96620.13;;;3.75;78.19
3960;BME280;1994;48.640;8.894;2023-04-10T03:57:48;96613.63;;;3.58;78.44
3960;BME280;1994;48.640;8.894;2023-04-10T04:00:15;96616.28;;;3.50;78.18
3960;BME280;1994;48.640;8.894;2023-04-10T04:02:41;96615.31;;;3.51;78.59
3960;BME280;1994;48.640;8.894;2023-04-10T04:05:08;96608.78;;;3.63;77.96
3960;BME280;1994;48.640;8.894;2023-04-10T04:07:33;96613.00;;;3.70;77.83
3960;BME280;1994;48.640;8.894;2023-04-10T04:10:00;96610.28;;;3.72;77.48
3960;BME280;1994;48.640;8.894;2023-04-10T04:12:26;96601.88;;;3.63;77.62
3960;BME280;1994;48.640;8.894;2023-04-10T04:14:51;96604.88;;;3.67;77.92
3960;BME280;1994;48.640;8.894;2023-04-10T04:17:17;96601.00;;;3.56;78.39
3960;BME280;1994;48.640;8.894;2023-04-10T04:19:43;96596.16;;;3.47;78.47
3960;BME280;1994;48.640;8.894;2023-04-10T04:22:10;96593.25;;;3.50;78.64
3960;BME280;1994;48.640;8.894;2023-04-10T04:24:36;96600.22;;;3.56;79.12
3960;BME280;1994;48.640;8.894;2023-04-10T04:27:02;96603.47;;;3.64;78.92
3960;BME280;1994;48.640;8.894;2023-04-10T04:29:28;96600.47;;;3.61;78.54
3960;BME280;1994;48.640;8.894;2023-04-10T04:31:54;96609.81;;;3.54;78.36
3960;BME280;1994;48.640;8.894;2023-04-10T04:34:20;96603.50;;;3.35;78.68
3960;BME280;1994;48.640;8.894;2023-04-10T04:36:45;96607.38;;;3.31;79.38
3960;BME280;1994;48.640;8.894;2023-04-10T04:39:11;96597.56;;;3.35;79.19
3960;BME280;1994;48.640;8.894;2023-04-10T04:41:37;96600.75;;;3.37;79.68
3960;BME280;1994;48.640;8.894;2023-04-10T04:44:04;96605.34;;;3.27;79.60
3960;BME280;1994;48.640;8.894;2023-04-10T04:46:30;96610.72;;;3.17;80.08
3960;BME280;1994;48.640;8.894;2023-04-10T04:48:55;96606.03;;;3.21;79.98
3960;BME280;1994;48.640;8.894;2023-04-10T04:51:21;96606.19;;;3.05;80.67
3960;BME280;1994;48.640;8.894;2023-04-10T04:53:47;96608.50;;;3.00;80.92
3960;BME280;1994;48.640;8.894;2023-04-10T04:56:13;96616.44;;;3.05;80.99
3960;BME280;1994;48.640;8.894;2023-04-10T04:58:39;96610.81;;;3.24;80.49
3960;BME280;1994;48.640;8.894;2023-04-10T05:01:05;96615.66;;;3.33;79.93
3960;BME280;1994;48.640;8.894;2023-04-10T05:03:31;96616.91;;;3.37;79.78
3960;BME280;1994;48.640;8.894;2023-04-10T05:05:57;96616.09;;;3.37;80.19
3960;BME280;1994;48.640;8.894;2023-04-10T05:08:23;96614.19;;;3.39;80.14
3960;BME280;1994;48.640;8.894;2023-04-10T05:10:49;96614.25;;;3.45;80.44
3960;BME280;1994;48.640;8.894;2023-04-10T05:13:15;96615.94;;;3.53;80.33
3960;BME280;1994;48.640;8.894;2023-04-10T05:15:42;96618.41;;;3.61;80.05
3960;BME280;1994;48.640;8.894;2023-04-10T05:18:09;96628.00;;;3.59;79.65
3960;BME280;1994;48.640;8.894;2023-04-10T05:20:36;96623.78;;;3.66;79.37
3960;BME280;1994;48.640;8.894;2023-04-10T05:23:02;96631.81;;;3.63;79.56
3960;BME280;1994;48.640;8.894;2023-04-10T05:25:27;96632.00;;;3.76;79.61
3960;BME280;1994;48.640;8.894;2023-04-10T05:27:53;96628.25;;;3.93;79.04
3960;BME280;1994;48.640;8.894;2023-04-10T05:30:19;96625.75;;;3.99;78.82
3960;BME280;1994;48.640;8.894;2023-04-10T05:32:45;96633.31;;;4.22;77.88
3960;BME280;1994;48.640;8.894;2023-04-10T05:35:11;96633.81;;;4.32;78.15
3960;BME280;1994;48.640;8.894;2023-04-10T05:37:37;96633.81;;;4.32;77.28
3960;BME280;1994;48.640;8.894;2023-04-10T05:40:03;96627.94;;;4.38;77.51
3960;BME280;1994;48.640;8.894;2023-04-10T05:42:29;96634.78;;;4.52;77.24
3960;BME280;1994;48.640;8.894;2023-04-10T05:44:55;96630.94;;;4.62;77.04
3960;BME280;1994;48.640;8.894;2023-04-10T05:47:21;96636.56;;;4.72;76.80
3960;BME280;1994;48.640;8.894;2023-04-10T05:49:46;96635.41;;;4.75;76.46
3960;BME280;1994;48.640;8.894;2023-04-10T05:52:12;96646.88;;;4.79;76.36
3960;BME280;1994;48.640;8.894;2023-04-10T05:54:38;96638.31;;;4.93;76.57
3960;BME280;1994;48.640;8.894;2023-04-10T05:57:03;96639.28;;;4.92;76.65
3960;BME280;1994;48.640;8.894;2023-04-10T05:59:29;96641.13;;;4.98;76.47
3960;BME280;1994;48.640;8.894;2023-04-10T06:01:56;96646.34;;;5.11;76.66
3960;BME280;1994;48.640;8.894;2023-04-10T06:04:22;96639.50;;;5.18;76.33
3960;BME280;1994;48.640;8.894;2023-04-10T06:06:48;96638.97;;;5.29;76.43
3960;BME280;1994;48.640;8.894;2023-04-10T06:09:14;96638.97;;;5.29;75.85
3960;BME280;1994;48.640;8.894;2023-04-10T06:11:39;96632.28;;;5.34;76.11
3960;BME280;1994;48.640;8.894;2023-04-10T06:14:05;96635.91;;;5.46;75.96
3960;BME280;1994;48.640;8.894;2023-04-10T06:16:31;96636.31;;;5.50;75.94
3960;BME280;1994;48.640;8.894;2023-04-10T06:18:57;96637.41;;;5.62;75.42
3960;BME280;1994;48.640;8.894;2023-04-10T06:21:23;96639.56;;;5.65;75.14
3960;BME280;1994;48.640;8.894;2023-04-10T06:23:48;96634.06;;;5.74;75.34
3960;BME280;1994;48.640;8.894;2023-04-10T06:26:15;96628.25;;;5.87;75.21
3960;BME280;1994;48.640;8.894;2023-04-10T06:28:41;96633.03;;;6.03;74.61
3960;BME280;1994;48.640;8.894;2023-04-10T06:31:07;96627.19;;;6.22;73.79
3960;BME280;1994;48.640;8.894;2023-04-10T06:33:32;96630.75;;;6.27;73.98
3960;BME280;1994;48.640;8.894;2023-04-10T06:36:00;96626.44;;;6.47;73.29
3960;BME280;1994;48.640;8.894;2023-04-10T06:38:26;96633.63;;;6.65;72.90
3960;BME280;1994;48.640;8.894;2023-04-10T06:40:54;96626.50;;;6.86;73.04
3960;BME280;1994;48.640;8.894;2023-04-10T06:43:19;96630.44;;;7.02;72.62
3960;BME280;1994;48.640;8.894;2023-04-10T06:45:45;96625.31;;;7.15;72.04
3960;BME280;1994;48.640;8.894;2023-04-10T06:48:11;96628.63;;;7.35;72.01
3960;BME280;1994;48.640;8.894;2023-04-10T06:50:37;96618.88;;;7.50;70.42
3960;BME280;1994;48.640;8.894;2023-04-10T06:53:02;96614.53;;;7.44;68.79
3960;BME280;1994;48.640;8.894;2023-04-10T06:55:29;96618.81;;;7.76;69.22
3960;BME280;1994;48.640;8.894;2023-04-10T06:57:55;96614.66;;;7.75;69.75
3960;BME280;1994;48.640;8.894;2023-04-10T07:00:21;96614.41;;;7.96;68.74
3960;BME280;1994;48.640;8.894;2023-04-10T07:02:48;96604.41;;;8.06;68.15
3960;BME280;1994;48.640;8.894;2023-04-10T07:05:14;96598.81;;;8.22;66.32
3960;BME280;1994;48.640;8.894;2023-04-10T07:07:40;96598.75;;;8.35;64.76
3960;BME280;1994;48.640;8.894;2023-04-10T07:10:07;96601.41;;;8.53;64.41
3960;BME280;1994;48.640;8.894;2023-04-10T07:12:33;96596.56;;;8.63;63.99
3960;BME280;1994;48.640;8.894;2023-04-10T07:14:59;96606.06;;;8.69;63.54
3960;BME280;1994;48.640;8.894;2023-04-10T07:17:25;96601.13;;;8.92;61.88
3960;BME280;1994;48.640;8.894;2023-04-10T07:19:50;96603.00;;;9.03;61.24
3960;BME280;1994;48.640;8.894;2023-04-10T07:22:16;96603.91;;;9.15;58.99
3960;BME280;1994;48.640;8.894;2023-04-10T07:24:42;96608.41;;;9.26;57.60
3960;BME280;1994;48.640;8.894;2023-04-10T07:27:08;96600.66;;;9.44;58.88
3960;BME280;1994;48.640;8.894;2023-04-10T07:29:34;96604.81;;;9.63;56.87
3960;BME280;1994;48.640;8.894;2023-04-10T07:32:00;96604.38;;;9.84;55.73
3960;BME280;1994;48.640;8.894;2023-04-10T07:34:25;96607.69;;;9.91;57.02
3960;BME280;1994;48.640;8.894;2023-04-10T07:36:51;96604.81;;;9.99;56.68
3960;BME280;1994;48.640;8.894;2023-04-10T07:39:17;96608.84;;;10.13;58.09
3960;BME280;1994;48.640;8.894;2023-04-10T07:41:43;96616.00;;;10.29;58.69
3960;BME280;1994;48.640;8.894;2023-04-10T07:44:09;96611.53;;;10.36;58.53
3960;BME280;1994;48.640;8.894;2023-04-10T07:46:35;96618.84;;;10.57;58.93
3960;BME280;1994;48.640;8.894;2023-04-10T07:49:01;96621.34;;;10.75;55.91
3960;BME280;1994;48.640;8.894;2023-04-10T07:51:27;96617.00;;;10.98;56.69
3960;BME280;1994;48.640;8.894;2023-04-10T07:53:53;96616.44;;;11.08;54.58
3960;BME280;1994;48.640;8.894;2023-04-10T07:56:20;96613.84;;;11.08;53.51
3960;BME280;1994;48.640;8.894;2023-04-10T07:58:46;96608.34;;;11.39;54.16
3960;BME280;1994;48.640;8.894;2023-04-10T08:01:13;96604.16;;;11.49;52.40
3960;BME280;1994;48.640;8.894;2023-04-10T08:03:44;96603.22;;;11.90;51.96
3960;BME280;1994;48.640;8.894;2023-04-10T08:06:11;96601.31;;;12.53;50.47
3960;BME280;1994;48.640;8.894;2023-04-10T08:08:39;96603.88;;;13.30;48.30
3960;BME280;1994;48.640;8.894;2023-04-10T08:11:28;96596.97;;;14.17;45.36
3960;BME280;1994;48.640;8.894;2023-04-10T08:13:57;96599.31;;;15.29;43.59
3960;BME280;1994;48.640;8.894;2023-04-10T08:16:27;96595.34;;;15.58;42.01
3960;BME280;1994;48.640;8.894;2023-04-10T08:18:55;96591.75;;;16.31;39.86
3960;BME280;1994;48.640;8.894;2023-04-10T08:21:25;96591.59;;;17.07;39.83
3960;BME280;1994;48.640;8.894;2023-04-10T08:24:00;96595.03;;;17.43;38.21
3960;BME280;1994;48.640;8.894;2023-04-10T08:26:27;96589.28;;;18.19;36.22
3960;BME280;1994;48.640;8.894;2023-04-10T08:28:56;96600.78;;;17.05;36.15
3960;BME280;1994;48.640;8.894;2023-04-10T08:31:24;96592.19;;;18.08;33.96
3960;BME280;1994;48.640;8.894;2023-04-10T08:33:50;96599.56;;;18.06;32.63
3960;BME280;1994;48.640;8.894;2023-04-10T08:36:16;96598.16;;;16.85;33.44
3960;BME280;1994;48.640;8.894;2023-04-10T08:38:43;96593.91;;;16.49;33.78
3960;BME280;1994;48.640;8.894;2023-04-10T08:41:11;96596.03;;;16.57;33.91
3960;BME280;1994;48.640;8.894;2023-04-10T08:43:38;96596.03;;;16.77;33.67
3960;BME280;1994;48.640;8.894;2023-04-10T08:46:04;96602.84;;;17.13;33.18
3960;BME280;1994;48.640;8.894;2023-04-10T08:48:44;96606.53;;;17.17;32.94
3960;BME280;1994;48.640;8.894;2023-04-10T08:51:24;96601.28;;;16.92;33.32
3960;BME280;1994;48.640;8.894;2023-04-10T08:53:57;96603.31;;;16.55;33.81
3960;BME280;1994;48.640;8.894;2023-04-10T08:56:23;96606.50;;;17.67;33.01
3960;BME280;1994;48.640;8.894;2023-04-10T08:58:51;96602.28;;;18.49;31.35
3960;BME280;1994;48.640;8.894;2023-04-10T09:01:20;96597.81;;;18.88;30.83
3960;BME280;1994;48.640;8.894;2023-04-10T09:03:47;96605.06;;;18.63;30.67
3960;BME280;1994;48.640;8.894;2023-04-10T09:06:13;96602.09;;;18.36;33.44
3960;BME280;1994;48.640;8.894;2023-04-10T09:08:39;96593.19;;;19.09;33.09
3960;BME280;1994;48.640;8.894;2023-04-10T09:11:04;96603.31;;;18.92;33.27
3960;BME280;1994;48.640;8.894;2023-04-10T09:13:42;96595.94;;;18.94;30.26
3960;BME280;1994;48.640;8.894;2023-04-10T09:16:10;96589.03;;;19.03;32.35
3960;BME280;1994;48.640;8.894;2023-04-10T09:18:49;96584.47;;;19.47;31.08
3960;BME280;1994;48.640;8.894;2023-04-10T09:21:20;96581.31;;;18.83;29.78
3960;BME280;1994;48.640;8.894;2023-04-10T09:23:47;96574.66;;;18.57;30.65
3960;BME280;1994;48.640;8.894;2023-04-10T09:26:30;96580.28;;;19.46;31.79
3960;BME280;1994;48.640;8.894;2023-04-10T09:29:07;96576.59;;;18.85;32.60
3960;BME280;1994;48.640;8.894;2023-04-10T09:31:38;96569.72;;;19.51;33.28
3960;BME280;1994;48.640;8.894;2023-04-10T09:34:14;96560.41;;;20.05;29.33
3960;BME280;1994;48.640;8.894;2023-04-10T09:36:42;96561.28;;;19.54;29.74
3960;BME280;1994;48.640;8.894;2023-04-10T09:39:11;96558.88;;;19.57;28.91
3960;BME280;1994;48.640;8.894;2023-04-10T09:41:53;96563.47;;;19.47;28.84
3960;BME280;1994;48.640;8.894;2023-04-10T09:44:37;96552.28;;;19.36;28.83
3960;BME280;1994;48.640;8.894;2023-04-10T09:49:51;96544.34;;;20.12;29.36
3960;BME280;1994;48.640;8.894;2023-04-10T09:52:25;96536.22;;;20.64;29.38
3960;BME280;1994;48.640;8.894;2023-04-10T09:55:00;96535.94;;;20.47;28.11
3960;BME280;1994;48.640;8.894;2023-04-10T09:57:28;96530.78;;;20.00;30.36
3960;BME280;1994;48.640;8.894;2023-04-10T10:00:00;96523.19;;;19.98;32.03
3960;BME280;1994;48.640;8.894;2023-04-10T10:02:30;96528.66;;;19.78;31.61
3960;BME280;1994;48.640;8.894;2023-04-10T10:04:59;96520.06;;;19.26;33.19
3960;BME280;1994;48.640;8.894;2023-04-10T10:07:25;96520.06;;;19.26;33.57
3960;BME280;1994;48.640;8.894;2023-04-10T10:09:52;96515.81;;;19.77;30.52
3960;BME280;1994;48.640;8.894;2023-04-10T10:12:43;96500.59;;;19.74;29.32
3960;BME280;1994;48.640;8.894;2023-04-10T10:15:49;96493.44;;;20.40;29.36
3960;BME280;1994;48.640;8.894;2023-04-10T10:18:38;96496.63;;;20.37;28.31
3960;BME280;1994;48.640;8.894;2023-04-10T10:21:08;96494.53;;;20.71;28.32
3960;BME280;1994;48.640;8.894;2023-04-10T10:23:36;96489.16;;;20.44;27.52
3960;BME280;1994;48.640;8.894;2023-04-10T10:26:04;96485.88;;;20.15;29.22
3960;BME280;1994;48.640;8.894;2023-04-10T10:28:35;96482.91;;;20.40;27.16
3960;BME280;1994;48.640;8.894;2023-04-10T10:31:05;96481.06;;;20.22;27.87
3960;BME280;1994;48.640;8.894;2023-04-10T10:33:34;96467.97;;;20.35;28.13
3960;BME280;1994;48.640;8.894;2023-04-10T10:36:02;96469.19;;;20.24;27.35
3960;BME280;1994;48.640;8.894;2023-04-10T10:38:30;96466.31;;;19.84;28.60
3960;BME280;1994;48.640;8.894;2023-04-10T10:41:09;96456.88;;;19.83;28.62
3960;BME280;1994;48.640;8.894;2023-04-10T10:43:54;96463.31;;;19.90;27.89
3960;BME280;1994;48.640;8.894;2023-04-10T10:49:57;96458.13;;;18.91;28.58
3960;BME280;1994;48.640;8.894;2023-04-10T10:52:55;96462.13;;;18.55;29.48
3960;BME280;1994;48.640;8.894;2023-04-10T10:57:57;96451.31;;;19.42;28.35
3960;BME280;1994;48.640;8.894;2023-04-10T11:00:26;96448.75;;;19.37;28.48
3960;BME280;1994;48.640;8.894;2023-04-10T11:05:57;96443.06;;;19.91;27.83
3960;BME280;1994;48.640;8.894;2023-04-10T11:11:05;96440.22;;;21.34;25.60
3960;BME280;1994;48.640;8.894;2023-04-10T11:13:40;96435.13;;;21.24;26.57
3960;BME280;1994;48.640;8.894;2023-04-10T11:16:08;96429.84;;;20.97;27.55
3960;BME280;1994;48.640;8.894;2023-04-10T11:21:19;96426.69;;;19.99;27.41
3960;BME280;1994;48.640;8.894;2023-04-10T11:32:00;96419.22;;;21.02;27.15
3960;BME280;1994;48.640;8.894;2023-04-10T11:34:27;96420.06;;;20.20;26.48
3960;BME280;1994;48.640;8.894;2023-04-10T11:36:55;96421.78;;;20.11;26.78
3960;BME280;1994;48.640;8.894;2023-04-10T11:39:21;96419.91;;;19.93;27.96
3960;BME280;1994;48.640;8.894;2023-04-10T11:41:51;96423.41;;;20.07;28.67
3960;BME280;1994;48.640;8.894;2023-04-10T11:46:50;96412.94;;;20.02;26.90
3960;BME280;1994;48.640;8.894;2023-04-10T11:49:29;96414.97;;;20.10;26.23
3960;BME280;1994;48.640;8.894;2023-04-10T11:51:56;96408.25;;;19.99;26.26
3960;BME280;1994;48.640;8.894;2023-04-10T11:54:24;96396.47;;;20.15;26.19
3960;BME280;1994;48.640;8.894;2023-04-10T11:57:06;96385.88;;;19.83;27.09
3960;BME280;1994;48.640;8.894;2023-04-10T11:59:36;96386.56;;;20.25;26.87
3960;BME280;1994;48.640;8.894;2023-04-10T12:02:10;96383.09;;;19.56;26.62
3960;BME280;1994;48.640;8.894;2023-04-10T12:04:40;96377.69;;;20.03;25.32
3960;BME280;1994;48.640;8.894;2023-04-10T12:07:06;96373.00;;;20.00;26.06
3960;BME280;1994;48.640;8.894;2023-04-10T12:09:32;96380.38;;;19.98;26.41
3960;BME280;1994;48.640;8.894;2023-04-10T12:12:05;96370.44;;;19.58;25.70
3960;BME280;1994;48.640;8.894;2023-04-10T12:17:07;96362.75;;;19.43;25.32
3960;BME280;1994;48.640;8.894;2023-04-10T12:19:34;96359.78;;;19.31;25.96
3960;BME280;1994;48.640;8.894;2023-04-10T12:22:01;96360.78;;;19.35;26.33
3960;BME280;1994;48.640;8.894;2023-04-10T12:24:48;96358.09;;;19.40;26.81
3960;BME280;1994;48.640;8.894;2023-04-10T12:29:41;96354.94;;;19.38;25.86
3960;BME280;1994;48.640;8.894;2023-04-10T12:32:10;96358.38;;;19.94;26.82
3960;BME280;1994;48.640;8.894;2023-04-10T12:34:36;96371.66;;;19.65;26.50
3960;BME280;1994;48.640;8.894;2023-04-10T12:37:02;96358.41;;;19.10;25.87
3960;BME280;1994;48.640;8.894;2023-04-10T12:39:28;96357.63;;;19.33;25.30
3960;BME280;1994;48.640;8.894;2023-04-10T12:42:18;96348.63;;;19.39;24.95
3960;BME280;1994;48.640;8.894;2023-04-10T12:44:59;96344.59;;;19.65;24.79
3960;BME280;1994;48.640;8.894;2023-04-10T12:47:27;96324.13;;;19.99;25.00
3960;BME280;1994;48.640;8.894;2023-04-10T12:50:07;96332.38;;;20.11;25.83
3960;BME280;1994;48.640;8.894;2023-04-10T12:52:35;96337.84;;;19.59;25.66
3960;BME280;1994;48.640;8.894;2023-04-10T12:55:18;96336.06;;;19.36;26.38
3960;BME280;1994;48.640;8.894;2023-04-10T12:57:47;96329.28;;;19.72;25.67
3960;BME280;1994;48.640;8.894;2023-04-10T13:00:19;96325.97;;;19.80;25.75
3960;BME280;1994;48.640;8.894;2023-04-10T13:02:46;96323.34;;;19.98;25.23
3960;BME280;1994;48.640;8.894;2023-04-10T13:05:13;96321.13;;;19.87;24.93
3960;BME280;1994;48.640;8.894;2023-04-10T13:07:39;96309.47;;;19.42;25.48
3960;BME280;1994;48.640;8.894;2023-04-10T13:10:06;96313.66;;;19.20;24.11
3960;BME280;1994;48.640;8.894;2023-04-10T13:12:33;96309.59;;;19.32;25.13
3960;BME280;1994;48.640;8.894;2023-04-10T13:15:00;96303.69;;;19.59;25.40
3960;BME280;1994;48.640;8.894;2023-04-10T13:17:26;96316.91;;;19.54;24.56
3960;BME280;1994;48.640;8.894;2023-04-10T13:19:52;96321.59;;;19.57;23.11
3960;BME280;1994;48.640;8.894;2023-04-10T13:22:18;96300.00;;;19.60;23.15
3960;BME280;1994;48.640;8.894;2023-04-10T13:24:44;96304.53;;;19.73;23.16
3960;BME280;1994;48.640;8.894;2023-04-10T13:27:11;96299.28;;;19.73;24.03
3960;BME280;1994;48.640;8.894;2023-04-10T13:29:41;96304.97;;;19.43;24.24
3960;BME280;1994;48.640;8.894;2023-04-10T13:32:07;96304.69;;;19.26;25.22
3960;BME280;1994;48.640;8.894;2023-04-10T13:34:33;96303.56;;;19.08;24.48
3960;BME280;1994;48.640;8.894;2023-04-10T13:36:59;96305.75;;;19.01;24.95
3960;BME280;1994;48.640;8.894;2023-04-10T13:39:28;96300.78;;;19.00;25.08
3960;BME280;1994;48.640;8.894;2023-04-10T13:41:53;96292.97;;;18.95;24.15
3960;BME280;1994;48.640;8.894;2023-04-10T13:44:19;96277.91;;;18.82;24.35
3960;BME280;1994;48.640;8.894;2023-04-10T13:46:45;96277.69;;;18.78;25.05
3960;BME280;1994;48.640;8.894;2023-04-10T13:49:10;96271.31;;;18.84;25.75
3960;BME280;1994;48.640;8.894;2023-04-10T13:51:36;96275.78;;;18.84;26.09
3960;BME280;1994;48.640;8.894;2023-04-10T13:54:03;96266.97;;;18.75;25.82
3960;BME280;1994;48.640;8.894;2023-04-10T13:56:29;96268.34;;;18.91;26.15
3960;BME280;1994;48.640;8.894;2023-04-10T13:58:56;96263.81;;;18.96;27.08
3960;BME280;1994;48.640;8.894;2023-04-10T14:01:22;96258.25;;;18.56;26.20
3960;BME280;1994;48.640;8.894;2023-04-10T14:03:48;96261.56;;;18.66;25.98
3960;BME280;1994;48.640;8.894;2023-04-10T14:06:14;96253.19;;;19.06;26.12
3960;BME280;1994;48.640;8.894;2023-04-10T14:08:39;96256.78;;;18.92;25.14
3960;BME280;1994;48.640;8.894;2023-04-10T14:11:06;96245.78;;;18.90;25.03
3960;BME280;1994;48.640;8.894;2023-04-10T14:13:31;96239.28;;;18.87;25.23
3960;BME280;1994;48.640;8.894;2023-04-10T14:15:57;96234.34;;;18.81;25.04